sensor_id;sensor_type;location;lat;lon;timestamp;temperature;humidity
7317;DHT22;3699;51.462;6.696;2023-04-03T00:01:25;2.70;99.90
7317;DHT22;3699;51.462;6.696;2023-04-03T00:06:20;2.80;99.90
7317;DHT22;3699;51.462;6.696;2023-04-03T00:08:48;2.40;99.90
7317;DHT22;3699;51.462;6.696;2023-04-03T00:11:15;2.60;99.90
7317;DHT22;3699;51.462;6.696;2023-04-03T00:16:10;1.90;99.90
7317;DHT22;3699;51.462;6.696;2023-04-03T00:18:38;2.40;99.90
7317;DHT22;3699;51.462;6.696;2023-04-03T00:21:06;2.40;99.90
7317;DHT22;3699;51.462;6.696;2023-04-03T00:23:34;2.40;99.90
7317;DHT22;3699;51.462;6.696;2023-04-03T00:26:02;2.40;99.90
7317;DHT22;3699;51.462;6.696;2023-04-03T00:28:29;2.40;99.90
7317;DHT22;3699;51.462;6.696;2023-04-03T00:30:55;2.40;99.90
7317;DHT22;3699;51.462;6.696;2023-04-03T00:33:22;2.20;99.90
7317;DHT22;3699;51.462;6.696;2023-04-03T00:35:50;2.50;99.90
7317;DHT22;3699;51.462;6.696;2023-04-03T00:38:19;2.30;99.90
7317;DHT22;3699;51.462;6.696;2023-04-03T00:40:48;2.60;99.90
7317;DHT22;3699;51.462;6.696;2023-04-03T00:43:19;2.20;99.90
7317;DHT22;3699;51.462;6.696;2023-04-03T00:45:47;2.20;99.90
7317;DHT22;3699;51.462;6.696;2023-04-03T00:48:18;2.20;99.90
7317;DHT22;3699;51.462;6.696;2023-04-03T00:50:46;2.30;99.90
7317;DHT22;3699;51.462;6.696;2023-04-03T00:53:17;2.30;99.90
7317;DHT22;3699;51.462;6.696;2023-04-03T00:55:47;2.20;99.90
7317;DHT22;3699;51.462;6.696;2023-04-03T00:58:17;2.20;99.90
7317;DHT22;3699;51.462;6.696;2023-04-03T01:00:49;2.40;99.90
7317;DHT22;3699;51.462;6.696;2023-04-03T01:03:21;2.30;99.90
7317;DHT22;3699;51.462;6.696;2023-04-03T01:08:15;2.40;99.90
7317;DHT22;3699;51.462;6.696;2023-04-03T01:10:42;2.30;99.90
7317;DHT22;3699;51.462;6.696;2023-04-03T01:13:24;2.30;99.90
7317;DHT22;3699;51.462;6.696;2023-04-03T01:15:51;2.70;99.90
7317;DHT22;3699;51.462;6.696;2023-04-03T01:18:18;2.80;99.90
7317;DHT22;3699;51.462;6.696;2023-04-03T01:21:35;2.80;99.90
7317;DHT22;3699;51.462;6.696;2023-04-03T01:24:15;2.70;99.90
7317;DHT22;3699;51.462;6.696;2023-04-03T01:29:12;3.10;99.90
7317;DHT22;3699;51.462;6.696;2023-04-03T01:31:49;2.90;99.90
7317;DHT22;3699;51.462;6.696;2023-04-03T01:36:43;3.30;99.90
7317;DHT22;3699;51.462;6.696;2023-04-03T01:39:10;3.20;99.90
7317;DHT22;3699;51.462;6.696;2023-04-03T01:41:37;3.20;99.90
7317;DHT22;3699;51.462;6.696;2023-04-03T01:44:04;3.40;99.90
7317;DHT22;3699;51.462;6.696;2023-04-03T01:46:31;3.30;99.90
7317;DHT22;3699;51.462;6.696;2023-04-03T01:49:00;3.40;99.90
7317;DHT22;3699;51.462;6.696;2023-04-03T01:51:26;3.10;99.90
7317;DHT22;3699;51.462;6.696;2023-04-03T01:56:20;3.20;99.90
7317;DHT22;3699;51.462;6.696;2023-04-03T02:03:41;3.20;99.90
7317;DHT22;3699;51.462;6.696;2023-04-03T02:06:09;3.60;99.90
7317;DHT22;3699;51.462;6.696;2023-04-03T02:11:03;3.50;99.90
7317;DHT22;3699;51.462;6.696;2023-04-03T02:13:30;3.20;99.90
7317;DHT22;3699;51.462;6.696;2023-04-03T02:18:24;3.40;99.90
7317;DHT22;3699;51.462;6.696;2023-04-03T02:23:20;3.20;99.90
7317;DHT22;3699;51.462;6.696;2023-04-03T02:35:36;3.50;99.90
7317;DHT22;3699;51.462;6.696;2023-04-03T02:40:31;3.10;99.90
7317;DHT22;3699;51.462;6.696;2023-04-03T02:47:52;3.40;99.90
7317;DHT22;3699;51.462;6.696;2023-04-03T02:50:19;3.50;99.90
7317;DHT22;3699;51.462;6.696;2023-04-03T02:52:45;3.30;99.90
7317;DHT22;3699;51.462;6.696;2023-04-03T02:55:14;3.30;99.90
7317;DHT22;3699;51.462;6.696;2023-04-03T02:57:42;3.30;99.90
7317;DHT22;3699;51.462;6.696;2023-04-03T03:00:10;3.30;99.90
7317;DHT22;3699;51.462;6.696;2023-04-03T03:02:36;3.20;99.90
7317;DHT22;3699;51.462;6.696;2023-04-03T03:07:31;3.40;99.90
7317;DHT22;3699;51.462;6.696;2023-04-03T03:09:58;3.30;99.90
7317;DHT22;3699;51.462;6.696;2023-04-03T03:12:24;3.00;99.90
7317;DHT22;3699;51.462;6.696;2023-04-03T03:14:52;3.10;99.90
7317;DHT22;3699;51.462;6.696;2023-04-03T03:17:19;3.30;99.90
7317;DHT22;3699;51.462;6.696;2023-04-03T03:19:46;3.20;99.90
7317;DHT22;3699;51.462;6.696;2023-04-03T03:29:34;3.10;99.90
7317;DHT22;3699;51.462;6.696;2023-04-03T03:32:02;3.10;99.90
7317;DHT22;3699;51.462;6.696;2023-04-03T03:34:29;2.90;99.90
7317;DHT22;3699;51.462;6.696;2023-04-03T03:36:56;3.00;99.90
7317;DHT22;3699;51.462;6.696;2023-04-03T03:39:23;3.10;99.90
7317;DHT22;3699;51.462;6.696;2023-04-03T03:41:50;2.80;99.90
7317;DHT22;3699;51.462;6.696;2023-04-03T03:44:18;3.10;99.90
7317;DHT22;3699;51.462;6.696;2023-04-03T03:46:45;3.00;99.90
7317;DHT22;3699;51.462;6.696;2023-04-03T03:49:13;3.00;99.90
7317;DHT22;3699;51.462;6.696;2023-04-03T03:51:40;3.00;99.90
7317;DHT22;3699;51.462;6.696;2023-04-03T03:54:07;3.20;99.90
7317;DHT22;3699;51.462;6.696;2023-04-03T03:56:34;2.80;99.90
7317;DHT22;3699;51.462;6.696;2023-04-03T04:01:28;2.80;99.90
7317;DHT22;3699;51.462;6.696;2023-04-03T04:03:55;2.90;99.90
7317;DHT22;3699;51.462;6.696;2023-04-03T04:06:23;3.10;99.90
7317;DHT22;3699;51.462;6.696;2023-04-03T04:08:50;3.10;99.90
7317;DHT22;3699;51.462;6.696;2023-04-03T04:11:17;2.80;99.90
7317;DHT22;3699;51.462;6.696;2023-04-03T04:13:44;3.20;99.90
7317;DHT22;3699;51.462;6.696;2023-04-03T04:16:11;2.70;99.90
7317;DHT22;3699;51.462;6.696;2023-04-03T04:21:05;3.10;99.90
7317;DHT22;3699;51.462;6.696;2023-04-03T04:23:33;3.20;99.90
7317;DHT22;3699;51.462;6.696;2023-04-03T04:28:27;2.90;99.90
7317;DHT22;3699;51.462;6.696;2023-04-03T04:30:53;2.90;99.90
7317;DHT22;3699;51.462;6.696;2023-04-03T04:33:20;2.30;99.90
7317;DHT22;3699;51.462;6.696;2023-04-03T04:35:47;3.00;99.90
7317;DHT22;3699;51.462;6.696;2023-04-03T04:38:15;2.90;99.90
7317;DHT22;3699;51.462;6.696;2023-04-03T04:40:43;3.40;99.90
7317;DHT22;3699;51.462;6.696;2023-04-03T04:45:39;3.00;99.90
7317;DHT22;3699;51.462;6.696;2023-04-03T04:48:06;2.60;99.90
7317;DHT22;3699;51.462;6.696;2023-04-03T04:50:33;2.80;99.90
7317;DHT22;3699;51.462;6.696;2023-04-03T04:57:55;2.40;99.90
7317;DHT22;3699;51.462;6.696;2023-04-03T05:05:16;2.60;99.90
7317;DHT22;3699;51.462;6.696;2023-04-03T05:10:10;2.60;99.90
7317;DHT22;3699;51.462;6.696;2023-04-03T05:15:07;2.50;99.90
7317;DHT22;3699;51.462;6.696;2023-04-03T05:17:33;2.60;99.90
7317;DHT22;3699;51.462;6.696;2023-04-03T05:20:00;2.60;99.90
7317;DHT22;3699;51.462;6.696;2023-04-03T05:22:28;2.30;99.90
7317;DHT22;3699;51.462;6.696;2023-04-03T05:24:55;2.50;99.90
7317;DHT22;3699;51.462;6.696;2023-04-03T05:27:22;2.50;99.90
7317;DHT22;3699;51.462;6.696;2023-04-03T05:32:18;2.60;99.90
7317;DHT22;3699;51.462;6.696;2023-04-03T05:34:44;2.60;99.90
7317;DHT22;3699;51.462;6.696;2023-04-03T05:42:06;2.80;99.90
7317;DHT22;3699;51.462;6.696;2023-04-03T05:44:33;3.20;99.90
7317;DHT22;3699;51.462;6.696;2023-04-03T05:49:29;4.10;99.90
7317;DHT22;3699;51.462;6.696;2023-04-03T05:51:55;4.60;99.90
7317;DHT22;3699;51.462;6.696;2023-04-03T05:54:24;5.00;99.90
7317;DHT22;3699;51.462;6.696;2023-04-03T05:59:18;6.20;99.90
7317;DHT22;3699;51.462;6.696;2023-04-03T06:01:46;6.20;99.90
7317;DHT22;3699;51.462;6.696;2023-04-03T06:06:46;6.60;99.90
7317;DHT22;3699;51.462;6.696;2023-04-03T06:14:08;7.00;99.90
7317;DHT22;3699;51.462;6.696;2023-04-03T06:21:29;7.60;99.90
7317;DHT22;3699;51.462;6.696;2023-04-03T06:23:58;7.70;99.90
7317;DHT22;3699;51.462;6.696;2023-04-03T06:26:24;8.10;99.90
7317;DHT22;3699;51.462;6.696;2023-04-03T06:28:52;8.10;97.70
7317;DHT22;3699;51.462;6.696;2023-04-03T06:36:13;7.70;96.30
7317;DHT22;3699;51.462;6.696;2023-04-03T06:38:40;8.30;92.00
7317;DHT22;3699;51.462;6.696;2023-04-03T06:41:08;8.30;97.20
7317;DHT22;3699;51.462;6.696;2023-04-03T06:43:35;8.40;94.70
7317;DHT22;3699;51.462;6.696;2023-04-03T06:48:29;8.50;92.00
7317;DHT22;3699;51.462;6.696;2023-04-03T06:50:56;8.70;90.90
7317;DHT22;3699;51.462;6.696;2023-04-03T06:53:23;8.80;76.50
7317;DHT22;3699;51.462;6.696;2023-04-03T06:55:50;8.80;84.60
7317;DHT22;3699;51.462;6.696;2023-04-03T06:58:18;8.80;72.50
7317;DHT22;3699;51.462;6.696;2023-04-03T07:00:45;9.20;85.90
7317;DHT22;3699;51.462;6.696;2023-04-03T07:03:12;9.10;77.60
7317;DHT22;3699;51.462;6.696;2023-04-03T07:05:39;9.50;75.60
7317;DHT22;3699;51.462;6.696;2023-04-03T07:08:06;9.40;77.70
7317;DHT22;3699;51.462;6.696;2023-04-03T07:10:32;9.00;73.40
7317;DHT22;3699;51.462;6.696;2023-04-03T07:15:28;9.90;56.50
7317;DHT22;3699;51.462;6.696;2023-04-03T07:17:55;10.00;61.10
7317;DHT22;3699;51.462;6.696;2023-04-03T07:22:49;9.70;66.00
7317;DHT22;3699;51.462;6.696;2023-04-03T07:30:11;9.70;60.00
7317;DHT22;3699;51.462;6.696;2023-04-03T07:32:40;9.50;52.00
7317;DHT22;3699;51.462;6.696;2023-04-03T07:35:08;9.70;47.00
7317;DHT22;3699;51.462;6.696;2023-04-03T07:40:02;9.90;58.10
7317;DHT22;3699;51.462;6.696;2023-04-03T07:42:29;10.30;56.40
7317;DHT22;3699;51.462;6.696;2023-04-03T07:47:24;10.20;56.20
7317;DHT22;3699;51.462;6.696;2023-04-03T07:49:52;9.90;60.80
7317;DHT22;3699;51.462;6.696;2023-04-03T07:52:19;9.60;58.70
7317;DHT22;3699;51.462;6.696;2023-04-03T07:54:46;9.50;55.50
7317;DHT22;3699;51.462;6.696;2023-04-03T07:57:13;9.60;57.60
7317;DHT22;3699;51.462;6.696;2023-04-03T08:02:09;9.40;57.40
7317;DHT22;3699;51.462;6.696;2023-04-03T08:04:36;9.30;50.60
7317;DHT22;3699;51.462;6.696;2023-04-03T08:07:04;9.10;57.70
7317;DHT22;3699;51.462;6.696;2023-04-03T08:11:58;9.10;52.30
7317;DHT22;3699;51.462;6.696;2023-04-03T08:14:26;8.80;53.20
7317;DHT22;3699;51.462;6.696;2023-04-03T08:19:20;8.30;51.50
7317;DHT22;3699;51.462;6.696;2023-04-03T08:21:47;9.50;53.90
7317;DHT22;3699;51.462;6.696;2023-04-03T08:24:15;9.30;54.00
7317;DHT22;3699;51.462;6.696;2023-04-03T08:26:41;9.40;52.10
7317;DHT22;3699;51.462;6.696;2023-04-03T08:31:35;9.10;39.10
7317;DHT22;3699;51.462;6.696;2023-04-03T08:34:02;9.30;45.90
7317;DHT22;3699;51.462;6.696;2023-04-03T08:36:30;9.20;37.00
7317;DHT22;3699;51.462;6.696;2023-04-03T08:38:57;8.90;39.30
7317;DHT22;3699;51.462;6.696;2023-04-03T08:41:29;9.50;33.90
7317;DHT22;3699;51.462;6.696;2023-04-03T08:44:09;9.40;42.50
7317;DHT22;3699;51.462;6.696;2023-04-03T08:46:47;9.70;37.80
7317;DHT22;3699;51.462;6.696;2023-04-03T08:49:22;9.50;35.90
7317;DHT22;3699;51.462;6.696;2023-04-03T08:51:51;9.50;27.50
7317;DHT22;3699;51.462;6.696;2023-04-03T08:54:27;9.60;27.90
7317;DHT22;3699;51.462;6.696;2023-04-03T08:56:56;9.60;26.30
7317;DHT22;3699;51.462;6.696;2023-04-03T08:59:27;9.70;31.20
7317;DHT22;3699;51.462;6.696;2023-04-03T09:01:57;9.60;34.80
7317;DHT22;3699;51.462;6.696;2023-04-03T09:04:26;9.00;33.70
7317;DHT22;3699;51.462;6.696;2023-04-03T09:07:08;9.60;34.30
7317;DHT22;3699;51.462;6.696;2023-04-03T09:09:41;9.40;33.80
7317;DHT22;3699;51.462;6.696;2023-04-03T09:12:17;9.30;31.80
7317;DHT22;3699;51.462;6.696;2023-04-03T09:14:50;9.30;30.20
7317;DHT22;3699;51.462;6.696;2023-04-03T09:17:26;9.40;22.90
7317;DHT22;3699;51.462;6.696;2023-04-03T09:20:01;9.40;29.00
7317;DHT22;3699;51.462;6.696;2023-04-03T09:22:32;9.30;20.80
7317;DHT22;3699;51.462;6.696;2023-04-03T09:25:14;9.10;29.20
7317;DHT22;3699;51.462;6.696;2023-04-03T09:27:43;9.50;24.50
7317;DHT22;3699;51.462;6.696;2023-04-03T09:30:13;9.80;23.90
7317;DHT22;3699;51.462;6.696;2023-04-03T09:32:40;9.70;29.70
7317;DHT22;3699;51.462;6.696;2023-04-03T09:35:17;9.30;30.00
7317;DHT22;3699;51.462;6.696;2023-04-03T09:37:46;10.00;20.40
7317;DHT22;3699;51.462;6.696;2023-04-03T09:40:30;10.10;28.00
7317;DHT22;3699;51.462;6.696;2023-04-03T09:43:00;9.90;24.50
7317;DHT22;3699;51.462;6.696;2023-04-03T09:45:28;9.90;20.60
7317;DHT22;3699;51.462;6.696;2023-04-03T09:48:07;9.40;20.40
7317;DHT22;3699;51.462;6.696;2023-04-03T09:50:35;9.30;19.90
7317;DHT22;3699;51.462;6.696;2023-04-03T09:53:07;9.20;27.10
7317;DHT22;3699;51.462;6.696;2023-04-03T09:55:51;9.40;27.30
7317;DHT22;3699;51.462;6.696;2023-04-03T09:58:27;9.20;18.60
7317;DHT22;3699;51.462;6.696;2023-04-03T10:00:57;9.40;25.80
7317;DHT22;3699;51.462;6.696;2023-04-03T10:03:27;9.30;25.60
7317;DHT22;3699;51.462;6.696;2023-04-03T10:05:54;9.30;26.50
7317;DHT22;3699;51.462;6.696;2023-04-03T10:08:25;9.60;24.00
7317;DHT22;3699;51.462;6.696;2023-04-03T10:11:08;9.20;22.70
7317;DHT22;3699;51.462;6.696;2023-04-03T10:13:49;9.30;23.90
7317;DHT22;3699;51.462;6.696;2023-04-03T10:16:18;9.30;21.90
7317;DHT22;3699;51.462;6.696;2023-04-03T10:18:51;9.70;22.50
7317;DHT22;3699;51.462;6.696;2023-04-03T10:21:31;9.40;22.80
7317;DHT22;3699;51.462;6.696;2023-04-03T10:24:08;9.10;22.00
7317;DHT22;3699;51.462;6.696;2023-04-03T10:26:41;9.60;14.80
7317;DHT22;3699;51.462;6.696;2023-04-03T10:29:20;9.40;15.20
7317;DHT22;3699;51.462;6.696;2023-04-03T10:31:53;9.50;23.50
7317;DHT22;3699;51.462;6.696;2023-04-03T10:34:24;10.00;22.50
7317;DHT22;3699;51.462;6.696;2023-04-03T10:37:00;9.80;15.20
7317;DHT22;3699;51.462;6.696;2023-04-03T10:39:34;9.80;24.10
7317;DHT22;3699;51.462;6.696;2023-04-03T10:42:08;9.90;16.50
7317;DHT22;3699;51.462;6.696;2023-04-03T10:44:54;9.90;16.00
7317;DHT22;3699;51.462;6.696;2023-04-03T10:47:29;9.90;22.40
7317;DHT22;3699;51.462;6.696;2023-04-03T10:50:20;9.80;22.90
7317;DHT22;3699;51.462;6.696;2023-04-03T10:52:55;10.40;22.50
7317;DHT22;3699;51.462;6.696;2023-04-03T10:55:34;9.80;21.10
7317;DHT22;3699;51.462;6.696;2023-04-03T10:58:02;9.80;14.00
7317;DHT22;3699;51.462;6.696;2023-04-03T11:00:36;9.60;15.70
7317;DHT22;3699;51.462;6.696;2023-04-03T11:03:08;9.90;16.50
7317;DHT22;3699;51.462;6.696;2023-04-03T11:05:41;9.70;23.50
7317;DHT22;3699;51.462;6.696;2023-04-03T11:08:14;9.80;23.30
7317;DHT22;3699;51.462;6.696;2023-04-03T11:10:43;9.90;24.10
7317;DHT22;3699;51.462;6.696;2023-04-03T11:13:13;9.70;23.00
7317;DHT22;3699;51.462;6.696;2023-04-03T11:15:43;9.80;22.50
7317;DHT22;3699;51.462;6.696;2023-04-03T11:18:13;9.70;15.90
7317;DHT22;3699;51.462;6.696;2023-04-03T11:20:44;9.90;23.60
7317;DHT22;3699;51.462;6.696;2023-04-03T11:23:19;10.00;23.90
7317;DHT22;3699;51.462;6.696;2023-04-03T11:25:50;10.00;17.20
7317;DHT22;3699;51.462;6.696;2023-04-03T11:28:18;10.00;24.10
7317;DHT22;3699;51.462;6.696;2023-04-03T11:30:51;10.20;17.30
7317;DHT22;3699;51.462;6.696;2023-04-03T11:33:28;10.10;23.10
7317;DHT22;3699;51.462;6.696;2023-04-03T11:36:00;9.80;24.50
7317;DHT22;3699;51.462;6.696;2023-04-03T11:38:31;9.80;17.70
7317;DHT22;3699;51.462;6.696;2023-04-03T11:41:02;9.90;25.10
7317;DHT22;3699;51.462;6.696;2023-04-03T11:43:31;10.10;24.30
7317;DHT22;3699;51.462;6.696;2023-04-03T11:46:02;10.10;18.80
7317;DHT22;3699;51.462;6.696;2023-04-03T11:48:45;10.20;24.90
7317;DHT22;3699;51.462;6.696;2023-04-03T11:51:41;10.10;23.70
7317;DHT22;3699;51.462;6.696;2023-04-03T11:57:46;10.20;17.30
7317;DHT22;3699;51.462;6.696;2023-04-03T12:00:49;10.30;18.10
7317;DHT22;3699;51.462;6.696;2023-04-03T12:07:01;10.10;23.20
7317;DHT22;3699;51.462;6.696;2023-04-03T12:12:35;10.60;23.60
7317;DHT22;3699;51.462;6.696;2023-04-03T12:15:21;10.80;17.40
7317;DHT22;3699;51.462;6.696;2023-04-03T12:17:48;10.40;23.50
7317;DHT22;3699;51.462;6.696;2023-04-03T12:20:55;10.40;17.20
7317;DHT22;3699;51.462;6.696;2023-04-03T12:23:29;10.60;16.40
7317;DHT22;3699;51.462;6.696;2023-04-03T12:26:04;10.30;22.10
7317;DHT22;3699;51.462;6.696;2023-04-03T12:28:41;10.10;17.50
7317;DHT22;3699;51.462;6.696;2023-04-03T12:31:10;10.40;23.10
7317;DHT22;3699;51.462;6.696;2023-04-03T12:33:50;10.70;22.50
7317;DHT22;3699;51.462;6.696;2023-04-03T12:36:28;10.60;21.60
7317;DHT22;3699;51.462;6.696;2023-04-03T12:39:16;10.80;21.80
7317;DHT22;3699;51.462;6.696;2023-04-03T12:41:53;10.30;21.40
7317;DHT22;3699;51.462;6.696;2023-04-03T12:44:37;10.60;21.80
7317;DHT22;3699;51.462;6.696;2023-04-03T12:47:21;10.70;21.70
7317;DHT22;3699;51.462;6.696;2023-04-03T12:49:49;10.60;22.50
7317;DHT22;3699;51.462;6.696;2023-04-03T12:52:27;10.80;21.90
7317;DHT22;3699;51.462;6.696;2023-04-03T12:54:58;10.50;22.80
7317;DHT22;3699;51.462;6.696;2023-04-03T12:59:54;10.40;22.10
7317;DHT22;3699;51.462;6.696;2023-04-03T13:02:23;10.70;22.20
7317;DHT22;3699;51.462;6.696;2023-04-03T13:04:51;10.80;21.90
7317;DHT22;3699;51.462;6.696;2023-04-03T13:07:23;10.80;16.00
7317;DHT22;3699;51.462;6.696;2023-04-03T13:09:58;10.80;14.80
7317;DHT22;3699;51.462;6.696;2023-04-03T13:12:25;10.60;21.20
7317;DHT22;3699;51.462;6.696;2023-04-03T13:14:53;10.40;23.10
7317;DHT22;3699;51.462;6.696;2023-04-03T13:17:21;10.80;22.70
7317;DHT22;3699;51.462;6.696;2023-04-03T13:19:48;10.30;17.10
7317;DHT22;3699;51.462;6.696;2023-04-03T13:22:26;10.20;22.00
7317;DHT22;3699;51.462;6.696;2023-04-03T13:24:54;10.20;21.60
7317;DHT22;3699;51.462;6.696;2023-04-03T13:27:24;10.00;22.10
7317;DHT22;3699;51.462;6.696;2023-04-03T13:29:52;9.90;24.20
7317;DHT22;3699;51.462;6.696;2023-04-03T13:32:22;10.10;19.60
7317;DHT22;3699;51.462;6.696;2023-04-03T13:34:49;10.30;23.30
7317;DHT22;3699;51.462;6.696;2023-04-03T13:37:22;10.20;16.60
7317;DHT22;3699;51.462;6.696;2023-04-03T13:40:00;10.10;23.10
7317;DHT22;3699;51.462;6.696;2023-04-03T13:42:30;10.20;23.30
7317;DHT22;3699;51.462;6.696;2023-04-03T13:45:10;10.10;22.90
7317;DHT22;3699;51.462;6.696;2023-04-03T13:47:39;10.60;22.90
7317;DHT22;3699;51.462;6.696;2023-04-03T13:50:15;10.00;22.90
7317;DHT22;3699;51.462;6.696;2023-04-03T13:52:43;10.10;23.10
7317;DHT22;3699;51.462;6.696;2023-04-03T13:55:21;10.10;17.30
7317;DHT22;3699;51.462;6.696;2023-04-03T13:57:52;9.80;23.30
7317;DHT22;3699;51.462;6.696;2023-04-03T14:00:22;9.70;24.40
7317;DHT22;3699;51.462;6.696;2023-04-03T14:02:55;9.40;24.00
7317;DHT22;3699;51.462;6.696;2023-04-03T14:05:23;9.80;24.00
7317;DHT22;3699;51.462;6.696;2023-04-03T14:07:51;9.90;23.70
7317;DHT22;3699;51.462;6.696;2023-04-03T14:10:18;9.70;24.50
7317;DHT22;3699;51.462;6.696;2023-04-03T14:12:45;9.80;24.40
7317;DHT22;3699;51.462;6.696;2023-04-03T14:15:18;10.10;23.70
7317;DHT22;3699;51.462;6.696;2023-04-03T14:17:44;9.90;24.10
7317;DHT22;3699;51.462;6.696;2023-04-03T14:20:15;10.10;23.60
7317;DHT22;3699;51.462;6.696;2023-04-03T14:22:42;10.10;17.40
7317;DHT22;3699;51.462;6.696;2023-04-03T14:25:10;10.10;23.30
7317;DHT22;3699;51.462;6.696;2023-04-03T14:27:39;10.10;17.40
7317;DHT22;3699;51.462;6.696;2023-04-03T14:30:08;10.10;18.70
7317;DHT22;3699;51.462;6.696;2023-04-03T14:32:37;9.90;18.70
7317;DHT22;3699;51.462;6.696;2023-04-03T14:35:04;10.00;17.10
7317;DHT22;3699;51.462;6.696;2023-04-03T14:37:32;10.10;23.70
7317;DHT22;3699;51.462;6.696;2023-04-03T14:40:00;10.10;24.20
7317;DHT22;3699;51.462;6.696;2023-04-03T14:42:29;10.30;24.30
7317;DHT22;3699;51.462;6.696;2023-04-03T14:44:57;10.00;23.40
7317;DHT22;3699;51.462;6.696;2023-04-03T14:47:26;10.20;17.90
7317;DHT22;3699;51.462;6.696;2023-04-03T14:49:55;9.90;24.60
7317;DHT22;3699;51.462;6.696;2023-04-03T14:52:24;9.80;19.60
7317;DHT22;3699;51.462;6.696;2023-04-03T14:54:52;10.00;18.50
7317;DHT22;3699;51.462;6.696;2023-04-03T14:57:22;10.10;24.30
7317;DHT22;3699;51.462;6.696;2023-04-03T14:59:50;10.10;24.70
7317;DHT22;3699;51.462;6.696;2023-04-03T15:02:29;10.30;22.20
7317;DHT22;3699;51.462;6.696;2023-04-03T15:04:58;9.70;19.10
7317;DHT22;3699;51.462;6.696;2023-04-03T15:07:27;9.40;24.60
7317;DHT22;3699;51.462;6.696;2023-04-03T15:09:55;9.40;25.60
7317;DHT22;3699;51.462;6.696;2023-04-03T15:12:22;10.20;24.70
7317;DHT22;3699;51.462;6.696;2023-04-03T15:17:19;10.00;21.40
7317;DHT22;3699;51.462;6.696;2023-04-03T15:19:46;10.10;25.20
7317;DHT22;3699;51.462;6.696;2023-04-03T15:22:16;10.00;19.50
7317;DHT22;3699;51.462;6.696;2023-04-03T15:27:11;9.70;24.80
7317;DHT22;3699;51.462;6.696;2023-04-03T15:29:39;9.70;22.50
7317;DHT22;3699;51.462;6.696;2023-04-03T15:32:06;9.70;25.00
7317;DHT22;3699;51.462;6.696;2023-04-03T15:37:01;9.50;25.70
7317;DHT22;3699;51.462;6.696;2023-04-03T15:39:29;9.50;25.70
7317;DHT22;3699;51.462;6.696;2023-04-03T15:41:56;9.70;22.30
7317;DHT22;3699;51.462;6.696;2023-04-03T15:44:25;9.60;21.10
7317;DHT22;3699;51.462;6.696;2023-04-03T15:46:53;9.60;25.80
7317;DHT22;3699;51.462;6.696;2023-04-03T15:49:21;9.60;19.70
7317;DHT22;3699;51.462;6.696;2023-04-03T15:51:48;9.50;26.10
7317;DHT22;3699;51.462;6.696;2023-04-03T15:54:15;10.00;26.50
7317;DHT22;3699;51.462;6.696;2023-04-03T15:56:43;9.50;20.40
7317;DHT22;3699;51.462;6.696;2023-04-03T15:59:10;9.40;27.20
7317;DHT22;3699;51.462;6.696;2023-04-03T16:04:05;8.90;26.40
7317;DHT22;3699;51.462;6.696;2023-04-03T16:06:32;8.90;26.80
7317;DHT22;3699;51.462;6.696;2023-04-03T16:11:27;9.40;25.60
7317;DHT22;3699;51.462;6.696;2023-04-03T16:13:55;9.60;26.20
7317;DHT22;3699;51.462;6.696;2023-04-03T16:16:22;9.20;26.00
7317;DHT22;3699;51.462;6.696;2023-04-03T16:18:49;9.30;27.00
7317;DHT22;3699;51.462;6.696;2023-04-03T16:21:17;9.30;20.60
7317;DHT22;3699;51.462;6.696;2023-04-03T16:23:44;9.10;22.10
7317;DHT22;3699;51.462;6.696;2023-04-03T16:26:11;9.30;27.70
7317;DHT22;3699;51.462;6.696;2023-04-03T16:31:07;9.70;27.30
7317;DHT22;3699;51.462;6.696;2023-04-03T16:33:34;9.00;26.00
7317;DHT22;3699;51.462;6.696;2023-04-03T16:36:02;9.70;27.20
7317;DHT22;3699;51.462;6.696;2023-04-03T16:40:56;9.20;26.00
7317;DHT22;3699;51.462;6.696;2023-04-03T16:48:20;9.20;28.10
7317;DHT22;3699;51.462;6.696;2023-04-03T16:50:47;9.20;27.40
7317;DHT22;3699;51.462;6.696;2023-04-03T16:53:16;8.80;21.00
7317;DHT22;3699;51.462;6.696;2023-04-03T16:55:43;8.80;24.80
7317;DHT22;3699;51.462;6.696;2023-04-03T16:58:09;9.00;27.90
7317;DHT22;3699;51.462;6.696;2023-04-03T17:00:36;8.80;27.70
7317;DHT22;3699;51.462;6.696;2023-04-03T17:03:03;8.80;27.80
7317;DHT22;3699;51.462;6.696;2023-04-03T17:05:31;8.70;21.30
7317;DHT22;3699;51.462;6.696;2023-04-03T17:07:58;8.70;28.50
7317;DHT22;3699;51.462;6.696;2023-04-03T17:12:53;8.40;28.60
7317;DHT22;3699;51.462;6.696;2023-04-03T17:15:21;8.40;29.20
7317;DHT22;3699;51.462;6.696;2023-04-03T17:17:48;8.40;29.40
7317;DHT22;3699;51.462;6.696;2023-04-03T17:20:15;8.70;27.90
7317;DHT22;3699;51.462;6.696;2023-04-03T17:22:43;8.30;30.20
7317;DHT22;3699;51.462;6.696;2023-04-03T17:25:11;8.60;29.80
7317;DHT22;3699;51.462;6.696;2023-04-03T17:27:38;8.10;29.70
7317;DHT22;3699;51.462;6.696;2023-04-03T17:30:07;8.50;24.10
7317;DHT22;3699;51.462;6.696;2023-04-03T17:39:58;8.10;30.00
7317;DHT22;3699;51.462;6.696;2023-04-03T17:42:25;8.20;28.50
7317;DHT22;3699;51.462;6.696;2023-04-03T17:47:19;8.10;30.10
7317;DHT22;3699;51.462;6.696;2023-04-03T17:49:45;7.30;29.80
7317;DHT22;3699;51.462;6.696;2023-04-03T17:52:12;7.80;30.00
7317;DHT22;3699;51.462;6.696;2023-04-03T17:57:07;7.80;23.70
7317;DHT22;3699;51.462;6.696;2023-04-03T17:59:35;7.70;30.00
7317;DHT22;3699;51.462;6.696;2023-04-03T18:02:02;7.70;30.20
7317;DHT22;3699;51.462;6.696;2023-04-03T18:04:28;7.90;25.90
7317;DHT22;3699;51.462;6.696;2023-04-03T18:06:56;7.80;30.90
7317;DHT22;3699;51.462;6.696;2023-04-03T18:09:25;7.60;26.40
7317;DHT22;3699;51.462;6.696;2023-04-03T18:11:54;7.50;31.30
7317;DHT22;3699;51.462;6.696;2023-04-03T18:14:24;7.50;24.70
7317;DHT22;3699;51.462;6.696;2023-04-03T18:16:52;7.50;32.60
7317;DHT22;3699;51.462;6.696;2023-04-03T18:19:21;7.40;32.30
7317;DHT22;3699;51.462;6.696;2023-04-03T18:21:48;7.40;25.30
7317;DHT22;3699;51.462;6.696;2023-04-03T18:24:18;7.40;33.10
7317;DHT22;3699;51.462;6.696;2023-04-03T18:26:48;7.20;33.40
7317;DHT22;3699;51.462;6.696;2023-04-03T18:31:46;7.10;35.30
7317;DHT22;3699;51.462;6.696;2023-04-03T18:36:40;7.20;35.10
7317;DHT22;3699;51.462;6.696;2023-04-03T18:39:07;6.90;35.90
7317;DHT22;3699;51.462;6.696;2023-04-03T18:41:36;7.10;27.90
7317;DHT22;3699;51.462;6.696;2023-04-03T18:44:04;7.00;27.80
7317;DHT22;3699;51.462;6.696;2023-04-03T18:46:32;7.00;28.40
7317;DHT22;3699;51.462;6.696;2023-04-03T18:49:01;6.50;36.70
7317;DHT22;3699;51.462;6.696;2023-04-03T18:51:28;7.00;37.40
7317;DHT22;3699;51.462;6.696;2023-04-03T18:56:22;7.10;38.70
7317;DHT22;3699;51.462;6.696;2023-04-03T18:58:49;6.80;37.70
7317;DHT22;3699;51.462;6.696;2023-04-03T19:03:43;7.00;39.30
7317;DHT22;3699;51.462;6.696;2023-04-03T19:06:11;6.80;30.60
7317;DHT22;3699;51.462;6.696;2023-04-03T19:08:38;6.70;38.80
7317;DHT22;3699;51.462;6.696;2023-04-03T19:11:05;6.70;39.90
7317;DHT22;3699;51.462;6.696;2023-04-03T19:13:32;6.50;37.80
7317;DHT22;3699;51.462;6.696;2023-04-03T19:15:59;6.60;41.00
7317;DHT22;3699;51.462;6.696;2023-04-03T19:18:26;6.80;41.20
7317;DHT22;3699;51.462;6.696;2023-04-03T19:20:54;6.50;35.20
7317;DHT22;3699;51.462;6.696;2023-04-03T19:23:23;6.60;43.10
7317;DHT22;3699;51.462;6.696;2023-04-03T19:25:57;6.60;43.70
7317;DHT22;3699;51.462;6.696;2023-04-03T19:30:52;6.30;44.50
7317;DHT22;3699;51.462;6.696;2023-04-03T19:33:19;6.40;36.00
7317;DHT22;3699;51.462;6.696;2023-04-03T19:35:46;6.60;46.30
7317;DHT22;3699;51.462;6.696;2023-04-03T19:38:13;6.30;46.90
7317;DHT22;3699;51.462;6.696;2023-04-03T19:40:41;6.40;39.30
7317;DHT22;3699;51.462;6.696;2023-04-03T19:43:10;6.30;49.40
7317;DHT22;3699;51.462;6.696;2023-04-03T19:45:37;6.50;50.40
7317;DHT22;3699;51.462;6.696;2023-04-03T19:52:58;6.20;51.10